createdAt,value
2023-03-15T00:00:31.775Z,16.27
2023-03-15T00:03:04.300Z,16.25
2023-03-15T00:05:37.154Z,16.24
2023-03-15T00:08:10.703Z,16.20
2023-03-15T00:10:45.744Z,16.19
2023-03-15T00:13:18.431Z,16.19
2023-03-15T00:15:54.211Z,16.17
2023-03-15T00:18:28.612Z,16.16
2023-03-15T00:21:01.104Z,16.14
2023-03-15T00:23:36.127Z,16.11
2023-03-15T00:26:08.477Z,16.13
2023-03-15T00:28:41.795Z,16.13
2023-03-15T00:31:18.883Z,16.10
2023-03-15T00:33:55.416Z,16.09
2023-03-15T00:36:32.455Z,16.05
2023-03-15T00:39:05.708Z,16.06
2023-03-15T00:41:39.238Z,16.04
2023-03-15T00:44:11.887Z,16.03
2023-03-15T00:46:44.413Z,16.03
2023-03-15T00:49:17.049Z,16.01
2023-03-15T00:51:49.351Z,15.99
2023-03-15T00:54:23.859Z,15.97
2023-03-15T00:56:56.651Z,15.97
2023-03-15T00:59:34.939Z,15.96
2023-03-15T01:02:08.215Z,15.95
2023-03-15T01:04:43.139Z,15.92
2023-03-15T01:07:16.042Z,15.92
2023-03-15T01:09:49.814Z,15.89
2023-03-15T01:12:22.321Z,15.90
2023-03-15T01:14:54.702Z,15.85
2023-03-15T01:17:29.578Z,15.86
2023-03-15T01:20:04.348Z,15.84
2023-03-15T01:22:36.717Z,15.83
2023-03-15T01:25:09.611Z,15.81
2023-03-15T01:27:41.964Z,15.81
2023-03-15T01:30:15.576Z,15.81
2023-03-15T01:32:48.016Z,15.79
2023-03-15T01:35:21.038Z,15.77
2023-03-15T01:37:53.407Z,15.77
2023-03-15T01:40:26.022Z,15.76
2023-03-15T01:43:04.857Z,15.75
2023-03-15T01:46:02.104Z,15.74
2023-03-15T01:48:44.789Z,15.70
2023-03-15T01:51:28.423Z,15.71
2023-03-15T01:54:13.528Z,15.69
2023-03-15T01:57:14.185Z,15.68
2023-03-15T01:59:52.387Z,15.66
2023-03-15T02:02:26.135Z,15.65
2023-03-15T02:05:09.913Z,15.64
2023-03-15T02:07:50.041Z,15.62
2023-03-15T02:10:49.772Z,15.61
2023-03-15T02:13:25.417Z,15.58
2023-03-15T02:16:00.520Z,15.59
2023-03-15T02:18:42.108Z,15.57
2023-03-15T02:21:45.305Z,15.55
2023-03-15T02:24:30.066Z,15.53
2023-03-15T02:27:03.749Z,15.53
2023-03-15T02:29:36.553Z,15.52
2023-03-15T02:32:09.231Z,15.49
2023-03-15T02:34:41.706Z,15.50
2023-03-15T02:37:14.928Z,15.47
2023-03-15T02:39:47.753Z,15.45
2023-03-15T02:42:20.719Z,15.43
2023-03-15T02:44:54.986Z,15.42
2023-03-15T02:47:32.749Z,15.43
2023-03-15T02:50:07.764Z,15.39
2023-03-15T02:52:40.223Z,15.39
2023-03-15T02:55:12.894Z,15.38
2023-03-15T02:57:46.178Z,15.37
2023-03-15T03:00:18.819Z,15.36
2023-03-15T03:02:51.264Z,15.33
2023-03-15T03:05:24.103Z,15.32
2023-03-15T03:07:56.767Z,15.30
2023-03-15T03:10:29.761Z,15.30
2023-03-15T03:13:03.808Z,15.29
2023-03-15T03:15:39.549Z,15.26
2023-03-15T03:18:12.567Z,15.26
2023-03-15T03:20:46.208Z,15.25
2023-03-15T03:23:18.631Z,15.24
2023-03-15T03:25:53.960Z,15.22
2023-03-15T03:28:29.112Z,15.23
2023-03-15T03:31:01.524Z,15.21
2023-03-15T03:33:34.646Z,15.19
2023-03-15T03:36:07.338Z,15.18
2023-03-15T03:38:42.082Z,15.15
2023-03-15T03:41:15.356Z,15.16
2023-03-15T03:43:47.583Z,15.15
2023-03-15T03:46:21.363Z,15.10
2023-03-15T03:48:57.611Z,15.10
2023-03-15T03:51:30.833Z,15.09
2023-03-15T03:54:03.665Z,15.08
2023-03-15T03:56:36.140Z,15.06
2023-03-15T03:59:08.640Z,15.05
2023-03-15T04:01:51.343Z,15.03
2023-03-15T04:04:26.499Z,15.03
2023-03-15T04:06:59.653Z,15.01
2023-03-15T04:09:38.898Z,15.00
2023-03-15T04:12:12.436Z,14.98
2023-03-15T04:14:47.629Z,14.96
2023-03-15T04:17:22.172Z,14.93
2023-03-15T04:19:54.754Z,14.92
2023-03-15T04:22:34.908Z,14.93
2023-03-15T04:25:27.762Z,14.91
2023-03-15T04:28:10.782Z,14.90
2023-03-15T04:31:02.176Z,14.89
2023-03-15T04:34:06.703Z,14.88
2023-03-15T04:36:59.395Z,14.86
2023-03-15T04:39:42.837Z,14.85
2023-03-15T04:42:37.366Z,14.83
2023-03-15T04:45:12.842Z,14.83
2023-03-15T04:48:23.564Z,14.80
2023-03-15T04:51:16.769Z,14.79
2023-03-15T04:54:09.371Z,14.76
2023-03-15T04:57:07.881Z,14.75
2023-03-15T05:00:10.056Z,14.74
2023-03-15T05:03:08.268Z,14.72
2023-03-15T05:06:11.321Z,14.71
2023-03-15T05:09:18.610Z,14.69
2023-03-15T05:11:56.819Z,14.67
2023-03-15T05:14:58.554Z,14.66
2023-03-15T05:17:41.824Z,14.64
2023-03-15T05:20:32.760Z,14.63
2023-03-15T05:23:24.907Z,14.61
2023-03-15T05:26:06.466Z,14.59
2023-03-15T05:29:15.038Z,14.58
2023-03-15T05:32:06.103Z,14.57
2023-03-15T05:34:58.611Z,14.54
2023-03-15T05:37:55.868Z,14.53
2023-03-15T05:40:48.395Z,14.52
2023-03-15T05:43:45.498Z,14.50
2023-03-15T05:46:38.096Z,14.50
2023-03-15T05:49:30.147Z,14.47
2023-03-15T05:52:23.638Z,14.47
2023-03-15T05:55:14.443Z,14.44
2023-03-15T05:57:59.151Z,14.43
2023-03-15T06:00:43.798Z,14.42
2023-03-15T06:03:31.799Z,14.38
2023-03-15T06:06:14.058Z,14.39
2023-03-15T06:08:47.491Z,14.38
2023-03-15T06:11:20.055Z,14.37
2023-03-15T06:13:52.474Z,14.35
2023-03-15T06:16:38.092Z,14.35
2023-03-15T06:19:10.687Z,14.35
2023-03-15T06:21:43.227Z,14.31
2023-03-15T06:24:27.024Z,14.32
2023-03-15T06:26:59.616Z,14.30
2023-03-15T06:29:32.332Z,14.30
2023-03-15T06:32:06.393Z,14.28
2023-03-15T06:34:41.527Z,14.27
2023-03-15T06:37:22.795Z,14.25
2023-03-15T06:40:08.351Z,14.25
2023-03-15T06:42:42.353Z,14.25
2023-03-15T06:45:17.656Z,14.25
2023-03-15T06:47:51.660Z,14.23
2023-03-15T06:50:26.141Z,14.23
2023-03-15T06:53:00.715Z,14.23
2023-03-15T06:55:33.562Z,14.26
2023-03-15T06:58:05.956Z,14.28
2023-03-15T07:00:38.413Z,14.31
2023-03-15T07:03:11.474Z,14.33
2023-03-15T07:05:45.672Z,14.37
2023-03-15T07:08:19.628Z,14.38
2023-03-15T07:10:52.607Z,14.43
2023-03-15T07:13:24.908Z,14.46
2023-03-15T07:15:57.361Z,14.50
2023-03-15T07:18:29.855Z,14.54
2023-03-15T07:21:04.561Z,14.56
2023-03-15T07:23:36.924Z,14.61
2023-03-15T07:26:09.382Z,14.63
2023-03-15T07:28:43.833Z,14.66
2023-03-15T07:31:16.479Z,14.69
2023-03-15T07:33:48.992Z,14.71
2023-03-15T07:36:22.417Z,14.75
2023-03-15T07:38:55.641Z,14.79
2023-03-15T07:41:29.293Z,14.81
2023-03-15T07:44:10.978Z,14.85
2023-03-15T07:46:43.458Z,14.88
2023-03-15T07:49:17.638Z,14.90
2023-03-15T07:51:50.061Z,14.94
2023-03-15T07:54:23.099Z,14.97
2023-03-15T07:56:56.514Z,15.00
2023-03-15T07:59:29.708Z,15.03
2023-03-15T08:02:03.154Z,15.03
2023-03-15T08:04:37.043Z,15.05
2023-03-15T08:07:11.330Z,15.08
2023-03-15T08:09:43.849Z,15.08
2023-03-15T08:12:16.250Z,15.12
2023-03-15T08:14:48.657Z,15.15
2023-03-15T08:17:21.352Z,15.17
2023-03-15T08:19:53.778Z,15.20
2023-03-15T08:22:26.840Z,15.25
2023-03-15T08:24:59.493Z,15.27
2023-03-15T08:27:32.440Z,15.28
2023-03-15T08:30:06.118Z,15.29
2023-03-15T08:32:40.268Z,15.31
2023-03-15T08:35:15.808Z,15.35
2023-03-15T08:37:52.710Z,15.36
2023-03-15T08:40:25.159Z,15.38
2023-03-15T08:42:58.282Z,15.38
2023-03-15T08:45:37.481Z,15.41
2023-03-15T08:48:16.233Z,15.42
2023-03-15T08:50:48.987Z,15.42
2023-03-15T08:53:21.435Z,15.42
2023-03-15T08:55:53.815Z,15.44
2023-03-15T08:58:26.247Z,15.46
2023-03-15T09:00:58.616Z,15.47
2023-03-15T09:03:34.806Z,15.47
2023-03-15T09:06:07.707Z,15.45
2023-03-15T09:08:40.180Z,15.47
2023-03-15T09:11:12.498Z,15.48
2023-03-15T09:13:44.899Z,15.47
2023-03-15T09:16:17.456Z,15.45
2023-03-15T09:18:49.808Z,15.49
2023-03-15T09:21:22.218Z,15.49
2023-03-15T09:23:54.730Z,15.50
2023-03-15T09:26:27.454Z,15.51
2023-03-15T09:28:59.886Z,15.52
2023-03-15T09:31:32.693Z,15.51
2023-03-15T09:34:06.614Z,15.52
2023-03-15T09:36:41.649Z,15.52
2023-03-15T09:39:14.217Z,15.54
2023-03-15T09:41:59.087Z,15.55
2023-03-15T09:44:56.239Z,15.55
2023-03-15T09:47:41.348Z,15.55
2023-03-15T09:50:22.838Z,15.55
2023-03-15T09:53:00.244Z,15.55
2023-03-15T09:55:37.551Z,15.56
2023-03-15T09:58:18.833Z,15.56
2023-03-15T10:00:55.095Z,15.57
2023-03-15T10:03:46.253Z,15.55
2023-03-15T10:06:46.263Z,15.58
2023-03-15T10:09:23.002Z,15.54
2023-03-15T10:12:15.148Z,15.58
2023-03-15T10:15:20.640Z,15.59
2023-03-15T10:17:59.628Z,15.59
2023-03-15T10:20:43.945Z,15.60
2023-03-15T10:23:47.585Z,15.61
2023-03-15T10:26:35.521Z,15.60
2023-03-15T10:29:17.495Z,15.61
2023-03-15T10:31:52.812Z,15.60
2023-03-15T10:34:27.566Z,15.62
2023-03-15T10:37:06.385Z,15.62
2023-03-15T10:39:39.874Z,15.63
2023-03-15T10:42:23.576Z,15.63
2023-03-15T10:44:56.530Z,15.62
2023-03-15T10:47:29.048Z,15.62
2023-03-15T10:50:01.502Z,15.61
2023-03-15T10:52:41.477Z,15.63
2023-03-15T10:55:22.280Z,15.62
2023-03-15T10:58:03.426Z,15.63
2023-03-15T11:00:39.273Z,15.61
2023-03-15T11:03:25.196Z,15.62
2023-03-15T11:05:59.479Z,15.64
2023-03-15T11:08:39.058Z,15.64
2023-03-15T11:11:11.665Z,15.59
2023-03-15T11:13:59.885Z,15.62
2023-03-15T11:16:37.828Z,15.65
2023-03-15T11:19:18.516Z,15.65
2023-03-15T11:21:51.869Z,15.67
2023-03-15T11:24:29.142Z,15.67
2023-03-15T11:27:08.995Z,15.69
2023-03-15T11:29:47.741Z,15.72
2023-03-15T11:32:24.744Z,15.72
2023-03-15T11:35:06.260Z,15.77
2023-03-15T11:37:46.648Z,15.80
2023-03-15T11:40:24.013Z,15.82
2023-03-15T11:43:09.469Z,15.85
2023-03-15T11:45:45.064Z,15.88
2023-03-15T11:48:50.465Z,15.89
2023-03-15T11:51:23.057Z,15.92
2023-03-15T11:54:11.833Z,15.96
2023-03-15T11:56:44.770Z,15.98
2023-03-15T11:59:32.814Z,16.01
2023-03-15T12:02:11.433Z,16.03
2023-03-15T12:04:49.789Z,16.08
2023-03-15T12:07:24.496Z,16.14
2023-03-15T12:10:18.154Z,16.19
2023-03-15T12:12:59.419Z,16.24
2023-03-15T12:15:37.886Z,16.27
2023-03-15T12:18:16.913Z,16.32
2023-03-15T12:21:07.480Z,16.35
2023-03-15T12:23:58.206Z,16.39
2023-03-15T12:26:46.596Z,16.43
2023-03-15T12:29:29.580Z,16.43
2023-03-15T12:32:01.874Z,16.43
2023-03-15T12:34:55.169Z,16.47
2023-03-15T12:37:39.507Z,16.48
2023-03-15T12:40:19.120Z,16.51
2023-03-15T12:42:54.794Z,16.54
2023-03-15T12:45:35.726Z,16.55
2023-03-15T12:48:13.174Z,16.55
2023-03-15T12:50:51.073Z,16.58
2023-03-15T12:53:38.297Z,16.59
2023-03-15T12:56:40.516Z,16.58
2023-03-15T12:59:20.199Z,16.59
2023-03-15T13:01:53.061Z,16.61
2023-03-15T13:04:28.317Z,16.58
2023-03-15T13:07:18.451Z,16.61
2023-03-15T13:10:02.926Z,16.62
2023-03-15T13:12:40.995Z,16.62
2023-03-15T13:15:24.947Z,16.64
2023-03-15T13:17:59.274Z,16.64
2023-03-15T13:20:57.394Z,16.67
2023-03-15T13:23:31.851Z,16.68
2023-03-15T13:26:23.642Z,16.69
2023-03-15T13:29:27.441Z,16.73
2023-03-15T13:32:11.938Z,16.72
2023-03-15T13:34:47.000Z,16.76
2023-03-15T13:37:31.753Z,16.77
2023-03-15T13:40:12.757Z,16.79
2023-03-15T13:42:45.096Z,16.81
2023-03-15T13:45:17.622Z,16.83
2023-03-15T13:47:50.042Z,16.83
2023-03-15T13:50:22.764Z,16.85
2023-03-15T13:52:56.514Z,16.85
2023-03-15T13:55:34.020Z,16.85
2023-03-15T13:58:09.354Z,16.85
2023-03-15T14:00:41.977Z,16.86
2023-03-15T14:03:22.530Z,16.86
2023-03-15T14:05:56.779Z,16.88
2023-03-15T14:08:38.038Z,16.86
2023-03-15T14:11:36.232Z,16.89
2023-03-15T14:14:23.302Z,16.90
2023-03-15T14:17:05.218Z,16.90
2023-03-15T14:19:38.278Z,16.91
2023-03-15T14:22:17.925Z,16.93
2023-03-15T14:24:52.597Z,16.95
2023-03-15T14:27:29.891Z,16.95
2023-03-15T14:30:03.292Z,16.97
2023-03-15T14:32:38.765Z,16.96
2023-03-15T14:35:22.835Z,16.96
2023-03-15T14:38:04.207Z,16.96
2023-03-15T14:40:38.830Z,16.97
2023-03-15T14:43:11.457Z,16.95
2023-03-15T14:45:48.054Z,16.94
2023-03-15T14:48:38.822Z,16.93
2023-03-15T14:51:16.171Z,16.93
2023-03-15T14:53:51.657Z,16.91
2023-03-15T14:56:25.177Z,16.92
2023-03-15T14:58:57.722Z,16.90
2023-03-15T15:01:30.371Z,16.88
2023-03-15T15:04:03.483Z,16.87
2023-03-15T15:06:38.015Z,16.85
2023-03-15T15:09:10.986Z,16.83
2023-03-15T15:11:43.422Z,16.84
2023-03-15T15:14:16.499Z,16.82
2023-03-15T15:16:49.462Z,16.81
2023-03-15T15:19:23.317Z,16.77
2023-03-15T15:21:56.458Z,16.76
2023-03-15T15:24:29.175Z,16.73
2023-03-15T15:27:02.405Z,16.72
2023-03-15T15:29:34.973Z,16.72
2023-03-15T15:32:07.755Z,16.70
2023-03-15T15:34:42.587Z,16.70
2023-03-15T15:37:16.275Z,16.68
2023-03-15T15:39:50.055Z,16.67
2023-03-15T15:42:22.515Z,16.66
2023-03-15T15:44:55.316Z,16.65
2023-03-15T15:47:35.399Z,16.64
2023-03-15T15:50:12.585Z,16.65
2023-03-15T15:52:49.497Z,16.64
2023-03-15T15:55:24.740Z,16.62
2023-03-15T15:57:57.634Z,16.62
2023-03-15T16:00:30.713Z,16.61
2023-03-15T16:03:03.404Z,16.61
2023-03-15T16:05:37.205Z,16.58
2023-03-15T16:08:19.402Z,16.57
2023-03-15T16:10:51.933Z,16.56
2023-03-15T16:13:24.462Z,16.53
2023-03-15T16:15:56.978Z,16.54
2023-03-15T16:18:29.393Z,16.51
2023-03-15T16:21:01.863Z,16.48
2023-03-15T16:23:34.444Z,16.48
2023-03-15T16:26:08.147Z,16.48
2023-03-15T16:28:40.819Z,16.45
2023-03-15T16:31:13.803Z,16.44
2023-03-15T16:33:46.620Z,16.41
2023-03-15T16:36:22.116Z,16.42
2023-03-15T16:38:55.912Z,16.37
2023-03-15T16:41:29.729Z,16.39
2023-03-15T16:44:03.204Z,16.41
2023-03-15T16:46:35.904Z,16.41
2023-03-15T16:49:09.096Z,16.42
2023-03-15T16:51:53.089Z,16.44
2023-03-15T16:54:40.331Z,16.45
2023-03-15T16:57:22.850Z,16.47
2023-03-15T16:59:56.385Z,16.48
2023-03-15T17:02:34.196Z,16.49
2023-03-15T17:05:07.593Z,16.51
2023-03-15T17:07:40.277Z,16.54
2023-03-15T17:16:06.744Z,16.58
2023-03-15T17:18:47.963Z,16.61
2023-03-15T17:21:24.610Z,16.61
2023-03-15T17:23:58.482Z,16.64
2023-03-15T17:26:35.342Z,16.65
2023-03-15T17:29:08.555Z,16.65
2023-03-15T17:31:41.200Z,16.66
2023-03-15T17:34:13.873Z,16.68
2023-03-15T17:36:46.335Z,16.68
2023-03-15T17:39:20.711Z,16.68
2023-03-15T17:41:53.260Z,16.70
2023-03-15T17:44:25.882Z,16.68
2023-03-15T17:47:00.179Z,16.67
2023-03-15T17:49:33.817Z,16.68
2023-03-15T17:52:15.596Z,16.69
2023-03-15T17:54:48.333Z,16.69
2023-03-15T17:57:22.440Z,16.70
2023-03-15T17:59:56.953Z,16.70
2023-03-15T18:02:32.614Z,16.71
2023-03-15T18:05:16.914Z,16.70
2023-03-15T18:07:58.536Z,16.70
2023-03-15T18:10:38.323Z,16.71
2023-03-15T18:13:18.032Z,16.72
2023-03-15T18:15:51.611Z,16.73
2023-03-15T18:18:27.463Z,16.73
2023-03-15T18:21:01.233Z,16.75
2023-03-15T18:23:33.838Z,16.76
2023-03-15T18:26:08.981Z,16.76
2023-03-15T18:28:42.600Z,16.76
2023-03-15T18:31:25.910Z,16.76
2023-03-15T18:33:59.421Z,16.76
2023-03-15T18:36:33.078Z,16.77
2023-03-15T18:39:06.477Z,16.77
2023-03-15T18:41:39.035Z,16.77
2023-03-15T18:44:12.644Z,16.77
2023-03-15T18:46:45.422Z,16.78
2023-03-15T18:49:17.925Z,16.78
2023-03-15T18:51:55.284Z,16.77
2023-03-15T18:54:27.758Z,16.76
2023-03-15T18:57:00.812Z,16.77
2023-03-15T18:59:33.207Z,16.76
2023-03-15T19:02:06.231Z,16.76
2023-03-15T19:04:38.724Z,16.75
2023-03-15T19:07:11.103Z,16.76
2023-03-15T19:09:44.760Z,16.75
2023-03-15T19:12:17.285Z,16.74
2023-03-15T19:14:49.685Z,16.75
2023-03-15T19:17:22.306Z,16.74
2023-03-15T19:19:54.709Z,16.73
2023-03-15T19:22:30.968Z,16.74
2023-03-15T19:25:04.313Z,16.73
2023-03-15T19:27:36.578Z,16.72
2023-03-15T19:30:18.627Z,16.72
2023-03-15T19:32:51.209Z,16.71
2023-03-15T19:35:23.971Z,16.71
2023-03-15T19:37:57.148Z,16.70
2023-03-15T19:40:29.630Z,16.69
2023-03-15T19:43:02.167Z,16.71
2023-03-15T19:45:34.570Z,16.69
2023-03-15T19:48:07.558Z,16.69
2023-03-15T19:50:40.251Z,16.69
2023-03-15T19:53:12.943Z,16.69
2023-03-15T19:55:45.410Z,16.70
2023-03-15T19:58:17.982Z,16.70
2023-03-15T20:00:52.152Z,16.71
2023-03-15T20:03:25.809Z,16.72
2023-03-15T20:06:07.005Z,16.73
2023-03-15T20:08:39.683Z,16.75
2023-03-15T20:11:20.085Z,16.76
2023-03-15T20:13:53.076Z,16.77
2023-03-15T20:16:25.767Z,16.79
2023-03-15T20:18:58.380Z,16.79
2023-03-15T20:21:30.815Z,16.80
2023-03-15T20:24:07.102Z,16.81
2023-03-15T20:26:39.635Z,16.83
2023-03-15T20:29:12.240Z,16.83
2023-03-15T20:31:45.402Z,16.84
2023-03-15T20:34:17.760Z,16.83
2023-03-15T20:36:52.809Z,16.83
2023-03-15T20:39:25.903Z,16.84
2023-03-15T20:41:58.306Z,16.83
2023-03-15T20:44:32.248Z,16.84
2023-03-15T20:47:04.840Z,16.83
2023-03-15T20:49:37.387Z,16.84
2023-03-15T20:52:10.077Z,16.82
2023-03-15T20:54:42.512Z,16.84
2023-03-15T20:57:14.786Z,16.82
2023-03-15T20:59:47.476Z,16.83
2023-03-15T21:02:22.481Z,16.84
2023-03-15T21:04:54.981Z,16.85
2023-03-15T21:07:27.366Z,16.85
2023-03-15T21:10:00.007Z,16.85
2023-03-15T21:12:32.906Z,16.87
2023-03-15T21:15:06.385Z,16.87
2023-03-15T21:17:38.823Z,16.88
2023-03-15T21:20:13.148Z,16.88
2023-03-15T21:22:47.080Z,16.90
2023-03-15T21:25:20.970Z,16.90
2023-03-15T21:27:53.841Z,16.90
2023-03-15T21:30:26.964Z,16.90
2023-03-15T21:32:59.494Z,16.92
2023-03-15T21:35:32.313Z,16.92
2023-03-15T21:38:06.799Z,16.93
2023-03-15T21:40:41.628Z,16.94
2023-03-15T21:43:14.727Z,16.93
2023-03-15T21:45:48.347Z,16.95
2023-03-15T21:48:24.807Z,16.96
2023-03-15T21:50:58.850Z,16.98
2023-03-15T21:53:43.651Z,16.96
2023-03-15T21:56:16.534Z,16.98
2023-03-15T21:58:49.844Z,16.97
2023-03-15T22:01:24.443Z,16.98
2023-03-15T22:03:59.844Z,17.00
2023-03-15T22:06:33.348Z,17.00
2023-03-15T22:09:10.067Z,17.00
2023-03-15T22:11:42.538Z,17.01
2023-03-15T22:14:15.597Z,17.01
2023-03-15T22:16:48.142Z,17.01
2023-03-15T22:19:21.216Z,17.02
2023-03-15T22:21:53.608Z,17.02
2023-03-15T22:24:26.196Z,17.03
2023-03-15T22:26:58.722Z,17.04
2023-03-15T22:29:32.690Z,17.04
2023-03-15T22:32:07.271Z,17.05
2023-03-15T22:34:40.483Z,17.05
2023-03-15T22:37:16.345Z,17.04
2023-03-15T22:39:49.181Z,17.04
2023-03-15T22:42:22.887Z,17.04
2023-03-15T22:44:55.606Z,17.05
2023-03-15T22:47:30.443Z,17.04
2023-03-15T22:50:02.837Z,17.03
2023-03-15T22:52:35.392Z,17.03
2023-03-15T22:55:09.570Z,17.03
2023-03-15T22:57:42.101Z,17.04
2023-03-15T23:00:17.131Z,17.03
2023-03-15T23:02:49.656Z,17.03
2023-03-15T23:05:22.085Z,17.01
2023-03-15T23:07:55.674Z,17.01
2023-03-15T23:10:28.462Z,17.01
2023-03-15T23:13:01.135Z,17.01
2023-03-15T23:15:35.035Z,17.01
2023-03-15T23:18:08.392Z,17.00
2023-03-15T23:20:42.274Z,16.99
2023-03-15T23:23:14.745Z,16.99
2023-03-15T23:25:47.535Z,16.98
2023-03-15T23:28:21.943Z,16.98
2023-03-15T23:30:54.367Z,16.93
2023-03-15T23:33:27.091Z,16.96
2023-03-15T23:36:00.455Z,16.96
2023-03-15T23:38:37.470Z,16.95
2023-03-15T23:41:10.255Z,16.95
2023-03-15T23:43:43.637Z,16.94
2023-03-15T23:46:16.136Z,16.93
2023-03-15T23:48:50.534Z,16.94
2023-03-15T23:51:23.333Z,16.93
2023-03-15T23:53:56.103Z,16.93
2023-03-15T23:56:30.657Z,16.90
2023-03-15T23:59:03.060Z,16.91
